Time;durP1;ratioP1;P1;durP2;ratioP2;P2;SDS_P1;SDS_P2;PMS_P1;PMS_P2;Temp;Humidity;BMP_temperature;BMP_pressure;BME280_temperature;BME280_humidity;BME280_pressure;Samples;Min_cycle;Max_cycle;Signal;HPM_P1;HPM_P2
2022/03/14 00:01:40;;;;;;;42.40;17.97;;;-0.30;99.90;;;;;;4996493;28;20270;-66
2022/03/14 00:04:06;;;;;;;41.63;17.87;;;-0.30;99.90;;;;;;4996256;28;20187;-66
2022/03/14 00:06:35;;;;;;;48.50;18.73;;;-0.30;99.90;;;;;;5013403;28;20175;-65
2022/03/14 00:09:06;;;;;;;38.13;17.63;;;-0.30;99.90;;;;;;4995995;28;20254;-65
2022/03/14 00:11:35;;;;;;;44.53;17.93;;;-0.30;99.90;;;;;;5013331;28;20219;-65
2022/03/14 00:14:04;;;;;;;40.43;17.77;;;-0.30;99.90;;;;;;5013523;28;20651;-66
2022/03/14 00:16:34;;;;;;;40.50;16.73;;;-0.40;99.90;;;;;;5014515;28;20199;-65
2022/03/14 00:19:00;;;;;;;35.07;15.50;;;-0.40;99.90;;;;;;5033292;28;20217;-65
2022/03/14 00:21:26;;;;;;;39.40;16.87;;;-0.40;99.90;;;;;;5033121;28;20190;-64
2022/03/14 00:23:54;;;;;;;39.30;16.80;;;-0.40;99.90;;;;;;5033097;28;20178;-66
2022/03/14 00:26:22;;;;;;;36.83;16.80;;;-0.30;99.90;;;;;;5031757;28;20187;-64
2022/03/14 00:28:48;;;;;;;36.50;16.13;;;-0.40;99.90;;;;;;5032693;28;20651;-65
2022/03/14 00:31:14;;;;;;;39.87;16.80;;;-0.30;99.90;;;;;;5033507;28;20174;-66
2022/03/14 00:33:41;;;;;;;35.67;15.20;;;-0.30;99.90;;;;;;5032978;28;20253;-65
2022/03/14 00:36:08;;;;;;;31.80;15.67;;;-0.40;99.90;;;;;;5033516;28;20191;-66
2022/03/14 00:38:36;;;;;;;36.30;15.70;;;-0.40;99.90;;;;;;5032670;28;20206;-66
2022/03/14 00:41:03;;;;;;;39.20;16.73;;;-0.40;99.90;;;;;;5033012;28;20220;-66
2022/03/14 00:43:29;;;;;;;34.00;14.50;;;-0.40;99.90;;;;;;5013208;28;20266;-66
2022/03/14 00:45:54;;;;;;;31.27;16.50;;;-0.40;99.90;;;;;;5012761;28;20386;-66
2022/03/14 00:48:20;;;;;;;37.10;17.23;;;-0.50;99.90;;;;;;5012868;28;20202;-65
2022/03/14 00:50:46;;;;;;;33.80;15.23;;;-0.50;99.90;;;;;;5012959;28;20644;-65
2022/03/14 00:53:12;;;;;;;34.63;16.07;;;-0.50;99.90;;;;;;5013091;28;20180;-65
2022/03/14 00:55:38;;;;;;;36.50;16.53;;;-0.50;99.90;;;;;;4995125;28;20542;-65
2022/03/14 00:58:03;;;;;;;37.63;16.30;;;-0.40;99.90;;;;;;5013107;28;20218;-64
2022/03/14 01:00:29;;;;;;;39.57;17.00;;;-0.40;99.90;;;;;;4994805;28;20290;-65
2022/03/14 01:02:55;;;;;;;41.40;16.37;;;-0.40;99.90;;;;;;5012916;28;20186;-65
2022/03/14 01:05:21;;;;;;;39.87;16.80;;;-0.50;99.90;;;;;;5012646;28;20186;-66
2022/03/14 01:07:46;;;;;;;31.80;14.00;;;-0.50;99.90;;;;;;4995121;28;20197;-65
2022/03/14 01:10:13;;;;;;;35.00;15.73;;;-0.50;99.90;;;;;;5013215;28;20207;-66
2022/03/14 01:12:39;;;;;;;32.77;15.87;;;-0.50;99.90;;;;;;4995024;28;20211;-65
2022/03/14 01:15:06;;;;;;;39.43;16.23;;;-0.50;99.90;;;;;;5012289;28;20266;-65
2022/03/14 01:17:32;;;;;;;36.60;15.00;;;-0.50;99.90;;;;;;5021755;28;20183;-65
2022/03/14 01:19:57;;;;;;;36.60;16.70;;;-0.60;99.90;;;;;;5032405;28;20190;-66
2022/03/14 01:22:23;;;;;;;35.40;16.10;;;-0.60;99.90;;;;;;5014132;28;20210;-65
2022/03/14 01:24:49;;;;;;;40.60;16.27;;;-0.60;99.90;;;;;;5031957;28;20189;-65
2022/03/14 01:27:14;;;;;;;37.20;16.27;;;-0.50;99.90;;;;;;5032202;28;20178;-66
2022/03/14 01:29:40;;;;;;;34.87;14.73;;;-0.60;99.90;;;;;;5014124;28;20190;-66
2022/03/14 01:32:07;;;;;;;41.07;15.97;;;-0.60;99.90;;;;;;5014123;28;20185;-65
2022/03/14 01:34:34;;;;;;;38.30;16.17;;;-0.50;99.90;;;;;;5031648;28;20574;-66
2022/03/14 01:37:01;;;;;;;38.10;16.30;;;-0.50;99.90;;;;;;5032579;28;20185;-66
2022/03/14 01:39:26;;;;;;;34.67;15.60;;;-0.60;99.90;;;;;;5031747;28;20210;-66
2022/03/14 01:41:52;;;;;;;32.47;16.03;;;-0.60;99.90;;;;;;5026038;28;20556;-66
2022/03/14 01:44:19;;;;;;;36.67;16.27;;;-0.60;99.90;;;;;;5012140;28;20187;-64
2022/03/14 01:46:45;;;;;;;38.20;15.57;;;-0.60;99.90;;;;;;5011836;28;20243;-66
2022/03/14 01:49:11;;;;;;;34.90;16.20;;;-0.60;99.90;;;;;;5012352;28;20194;-66
2022/03/14 01:51:41;;;;;;;33.63;15.43;;;-0.60;99.90;;;;;;5012101;28;20180;-65
2022/03/14 01:54:08;;;;;;;34.30;14.13;;;-0.60;99.90;;;;;;5012560;28;20176;-66
2022/03/14 01:56:35;;;;;;;36.57;15.07;;;-0.70;99.90;;;;;;5011749;28;20178;-65
2022/03/14 01:59:01;;;;;;;28.87;12.77;;;-0.70;99.90;;;;;;5012153;28;20210;-65
2022/03/14 02:01:27;;;;;;;31.60;12.30;;;-0.70;99.90;;;;;;5011834;28;20285;-67
2022/03/14 02:03:53;;;;;;;34.57;13.63;;;-0.70;99.90;;;;;;4994462;28;20635;-66
2022/03/14 02:06:19;;;;;;;32.40;12.87;;;-0.70;99.90;;;;;;5011873;28;20190;-64
2022/03/14 02:08:45;;;;;;;32.10;14.47;;;-0.70;99.90;;;;;;5011993;28;20266;-65
2022/03/14 02:11:11;;;;;;;29.53;12.37;;;-0.80;99.90;;;;;;4994481;28;20233;-65
2022/03/14 02:13:37;;;;;;;29.47;13.00;;;-0.70;99.90;;;;;;5011750;28;20180;-66
2022/03/14 02:16:03;;;;;;;30.03;12.60;;;-0.80;99.90;;;;;;5011787;28;20187;-65
2022/03/14 02:18:29;;;;;;;24.60;11.40;;;-0.80;99.90;;;;;;5028970;28;20206;-65
2022/03/14 02:20:56;;;;;;;29.30;12.33;;;-0.80;99.90;;;;;;5031495;28;20179;-66
2022/03/14 02:23:21;;;;;;;27.77;12.87;;;-0.90;99.90;;;;;;5013695;28;20187;-64
2022/03/14 02:25:52;;;;;;;27.90;12.13;;;-0.90;99.90;;;;;;5031330;28;20603;-65
2022/03/14 02:28:21;;;;;;;25.13;11.50;;;-0.90;99.90;;;;;;5031739;28;20175;-65
2022/03/14 02:30:47;;;;;;;28.83;12.30;;;-0.90;99.90;;;;;;5031390;28;20270;-65
2022/03/14 02:33:13;;;;;;;30.20;13.50;;;-1.00;99.90;;;;;;5013988;28;20274;-65
2022/03/14 02:35:42;;;;;;;27.43;12.03;;;-1.10;99.90;;;;;;5030153;28;20236;-65
2022/03/14 02:38:16;;;;;;;30.17;12.13;;;-1.10;99.90;;;;;;5031739;28;20252;-66
2022/03/14 02:40:46;;;;;;;29.03;12.07;;;-1.20;99.90;;;;;;5030981;28;20997;-65
2022/03/14 02:43:24;;;;;;;29.57;11.13;;;-1.20;99.90;;;;;;5015275;28;20544;-66
2022/03/14 02:45:52;;;;;;;31.40;11.53;;;-1.20;99.90;;;;;;4997402;28;20591;-65
2022/03/14 02:48:18;;;;;;;25.70;11.80;;;-1.30;99.90;;;;;;5015348;28;20187;-66
2022/03/14 02:50:48;;;;;;;22.53;10.47;;;-1.30;99.90;;;;;;5014516;28;20184;-65
2022/03/14 02:53:14;;;;;;;31.93;10.60;;;-1.40;99.90;;;;;;5015244;28;20192;-66
2022/03/14 02:55:40;;;;;;;33.10;11.60;;;-1.30;99.90;;;;;;5014867;28;20180;-66
2022/03/14 02:58:07;;;;;;;24.87;11.17;;;-1.30;99.90;;;;;;5013761;28;20643;-65
2022/03/14 03:00:35;;;;;;;40.73;12.33;;;-1.30;99.90;;;;;;5014856;28;20215;-65
2022/03/14 03:03:02;;;;;;;39.83;12.90;;;-1.40;99.90;;;;;;4997635;28;20277;-66
2022/03/14 03:05:31;;;;;;;29.33;12.43;;;-1.40;99.90;;;;;;5014880;28;20271;-65
2022/03/14 03:08:00;;;;;;;41.07;13.93;;;-1.50;99.90;;;;;;4997375;28;20194;-66
2022/03/14 03:10:28;;;;;;;35.30;13.13;;;-1.60;99.90;;;;;;4980864;28;20179;-66
2022/03/14 03:12:54;;;;;;;28.63;12.07;;;-1.60;99.90;;;;;;5014973;28;20188;-66
2022/03/14 03:15:20;;;;;;;29.80;12.77;;;-1.70;99.90;;;;;;5014585;28;20646;-66
2022/03/14 03:17:46;;;;;;;26.23;11.90;;;-1.70;99.90;;;;;;5025643;28;20201;-66
2022/03/14 03:20:14;;;;;;;38.40;12.93;;;-1.60;99.90;;;;;;5016840;28;20178;-66
2022/03/14 03:22:40;;;;;;;29.13;13.13;;;-1.60;99.90;;;;;;5016485;28;20622;-66
2022/03/14 03:25:07;;;;;;;35.73;11.77;;;-1.60;99.90;;;;;;5016685;28;20266;-65
2022/03/14 03:27:32;;;;;;;39.30;14.10;;;-1.60;99.90;;;;;;5016290;28;20341;-65
2022/03/14 03:29:59;;;;;;;36.80;13.27;;;-1.60;99.90;;;;;;5016393;28;20269;-65
2022/03/14 03:32:25;;;;;;;34.87;11.43;;;-1.60;99.90;;;;;;5016236;28;20631;-64
2022/03/14 03:34:51;;;;;;;26.23;11.73;;;-1.50;99.90;;;;;;5016411;28;20716;-67
2022/03/14 03:37:17;;;;;;;28.60;12.37;;;-1.50;99.90;;;;;;5034149;28;20213;-66
2022/03/14 03:39:43;;;;;;;30.37;12.80;;;-1.60;99.90;;;;;;5033656;28;20206;-65
2022/03/14 03:42:08;;;;;;;35.50;14.60;;;-1.60;99.90;;;;;;5025839;28;20234;-66
2022/03/14 03:44:34;;;;;;;35.90;14.27;;;-1.60;99.90;;;;;;5013702;28;20194;-66
2022/03/14 03:47:01;;;;;;;35.63;13.53;;;-1.60;99.90;;;;;;4979400;28;20245;-66
2022/03/14 03:49:27;;;;;;;34.63;14.53;;;-1.60;99.90;;;;;;4996339;28;20183;-66
2022/03/14 03:51:53;;;;;;;33.17;12.97;;;-1.70;99.90;;;;;;4996448;28;20183;-66
2022/03/14 03:54:19;;;;;;;34.60;15.03;;;-1.70;99.90;;;;;;5013777;28;20537;-66
2022/03/14 03:56:46;;;;;;;34.10;15.03;;;-1.70;99.90;;;;;;5013537;28;20245;-66
2022/03/14 03:59:11;;;;;;;31.47;15.73;;;-1.70;99.90;;;;;;5013665;28;20207;-67
2022/03/14 04:01:37;;;;;;;36.30;16.17;;;-1.70;99.90;;;;;;4995737;28;20206;-67
2022/03/14 04:04:04;;;;;;;41.43;17.13;;;-1.70;99.90;;;;;;5013593;28;20187;-67
2022/03/14 04:06:30;;;;;;;32.30;15.53;;;-1.70;99.90;;;;;;5013742;28;20262;-66
2022/03/14 04:09:00;;;;;;;35.57;16.10;;;-1.70;99.90;;;;;;5013786;28;20234;-67
2022/03/14 04:11:26;;;;;;;39.70;16.33;;;-1.70;99.90;;;;;;4997700;28;20191;-67
2022/03/14 04:13:55;;;;;;;41.43;16.67;;;-1.80;99.90;;;;;;5013917;28;20254;-67
2022/03/14 04:16:22;;;;;;;53.53;17.50;;;-1.90;99.90;;;;;;5014310;28;20632;-66
2022/03/14 04:18:48;;;;;;;36.50;16.10;;;-2.00;99.90;;;;;;5013092;28;20222;-65
2022/03/14 04:21:15;;;;;;;36.93;16.57;;;-2.10;99.90;;;;;;5011960;28;20185;-66
2022/03/14 04:23:41;;;;;;;29.77;14.80;;;-2.20;99.90;;;;;;5013238;28;20650;-65
2022/03/14 04:26:07;;;;;;;38.07;15.47;;;-2.20;99.90;;;;;;5013500;28;20174;-65
2022/03/14 04:28:36;;;;;;;31.93;15.57;;;-2.20;99.90;;;;;;5013352;28;20265;-66
2022/03/14 04:31:03;;;;;;;36.83;15.43;;;-2.30;99.90;;;;;;5013331;28;20663;-66
2022/03/14 04:33:30;;;;;;;39.13;16.80;;;-2.30;99.90;;;;;;5012559;28;20191;-64
2022/03/14 04:35:57;;;;;;;39.20;16.17;;;-2.30;99.90;;;;;;5012884;28;20277;-67
2022/03/14 04:38:27;;;;;;;35.80;15.53;;;-2.30;99.90;;;;;;5012806;28;20242;-59
2022/03/14 04:40:53;;;;;;;38.77;16.83;;;-2.40;99.90;;;;;;5012481;28;20197;-66
2022/03/14 04:43:20;;;;;;;38.47;17.23;;;-2.40;99.90;;;;;;5027607;28;20651;-65
2022/03/14 04:45:47;;;;;;;40.13;16.40;;;-2.40;99.90;;;;;;5021790;28;20216;-60
2022/03/14 04:48:12;;;;;;;34.17;16.30;;;-2.40;99.90;;;;;;5022610;28;20186;-59
2022/03/14 04:50:39;;;;;;;40.97;16.27;;;-2.40;99.90;;;;;;5031936;28;20198;-59
2022/03/14 04:53:06;;;;;;;45.80;16.97;;;-2.40;99.90;;;;;;5032205;28;20193;-66
2022/03/14 04:55:34;;;;;;;34.20;16.43;;;-2.50;99.90;;;;;;5030584;28;20267;-71
2022/03/14 04:58:00;;;;;;;39.37;16.67;;;-2.50;99.90;;;;;;5031761;28;20284;-72
2022/03/14 05:00:28;;;;;;;42.93;17.40;;;-2.40;99.90;;;;;;5031802;28;20185;-74
2022/03/14 05:03:03;;;;;;;36.37;16.90;;;-2.40;99.90;;;;;;5032166;28;20213;-73
2022/03/14 05:05:29;;;;;;;43.07;17.80;;;-2.40;99.90;;;;;;5030736;28;20243;-74
2022/03/14 05:07:55;;;;;;;39.40;17.43;;;-2.40;99.90;;;;;;5031921;28;20178;-73
2022/03/14 05:10:21;;;;;;;38.90;18.03;;;-2.40;99.90;;;;;;5032129;28;20284;-74
2022/03/14 05:12:48;;;;;;;35.77;17.90;;;-2.40;99.90;;;;;;5030392;28;20173;-74
2022/03/14 05:15:16;;;;;;;43.03;20.43;;;-2.40;99.90;;;;;;5011795;28;20203;-71
2022/03/14 05:17:42;;;;;;;42.23;19.20;;;-2.40;99.90;;;;;;5018626;28;20211;-73
2022/03/14 05:20:09;;;;;;;44.00;18.87;;;-2.30;99.90;;;;;;5010091;28;20231;-71
2022/03/14 05:22:42;;;;;;;45.57;20.60;;;-2.30;99.90;;;;;;5009957;28;20261;-72
2022/03/14 05:25:08;;;;;;;44.10;19.00;;;-2.10;99.90;;;;;;5010556;28;20561;-74
2022/03/14 05:27:34;;;;;;;42.60;18.47;;;-2.00;99.90;;;;;;5010132;28;20259;-74
2022/03/14 05:29:59;;;;;;;36.67;17.73;;;-1.90;99.90;;;;;;4993520;28;20194;-73
2022/03/14 05:32:25;;;;;;;42.87;18.97;;;-1.80;99.90;;;;;;4993794;28;20186;-73
2022/03/14 05:34:51;;;;;;;41.07;19.60;;;-1.70;99.90;;;;;;5011237;28;20183;-74
2022/03/14 05:37:17;;;;;;;40.00;16.93;;;-1.70;99.90;;;;;;5011135;28;20175;-74
2022/03/14 05:39:43;;;;;;;38.03;18.70;;;-1.60;99.90;;;;;;5010873;28;20229;-73
2022/03/14 05:42:09;;;;;;;37.93;18.93;;;-1.50;99.90;;;;;;5019536;28;20543;-74
2022/03/14 05:44:34;;;;;;;42.37;18.70;;;-1.40;99.90;;;;;;5030426;28;20197;-74
2022/03/14 05:47:00;;;;;;;42.27;20.00;;;-1.30;99.90;;;;;;5030484;28;20701;-74
2022/03/14 05:49:26;;;;;;;49.90;21.00;;;-1.20;99.90;;;;;;5030439;28;20178;-74
2022/03/14 05:51:52;;;;;;;46.57;23.33;;;-1.00;99.90;;;;;;5030005;28;20196;-74
2022/03/14 05:54:18;;;;;;;37.63;17.07;;;-0.90;99.90;;;;;;5030105;28;20607;-76
2022/03/14 05:56:45;;;;;;;43.77;19.20;;;-0.80;99.90;;;;;;5012497;28;20288;-74
2022/03/14 05:59:11;;;;;;;34.63;15.70;;;-0.80;99.90;;;;;;5012717;28;20264;-75
2022/03/14 06:01:39;;;;;;;40.10;14.67;;;-0.70;99.90;;;;;;5031105;28;20179;-75
2022/03/14 06:04:05;;;;;;;33.30;15.43;;;-0.60;99.90;;;;;;5014201;28;20715;-74
2022/03/14 06:06:30;;;;;;;33.33;15.63;;;-0.60;99.90;;;;;;5029959;28;20520;-75
2022/03/14 06:08:56;;;;;;;45.50;15.67;;;-0.50;99.90;;;;;;4996726;28;20248;-73
2022/03/14 06:11:22;;;;;;;34.53;13.27;;;-0.50;99.90;;;;;;5030710;28;20174;-75
2022/03/14 06:13:48;;;;;;;29.13;13.20;;;-0.50;99.90;;;;;;5030534;28;20178;-73
2022/03/14 06:16:13;;;;;;;24.47;12.10;;;-0.40;99.90;;;;;;5030824;28;20237;-75
2022/03/14 06:18:39;;;;;;;32.33;12.63;;;-0.40;99.90;;;;;;4997282;28;20215;-72
2022/03/14 06:21:05;;;;;;;25.30;11.87;;;-0.40;99.90;;;;;;5014477;28;20176;-75
2022/03/14 06:23:31;;;;;;;41.17;15.47;;;-0.40;99.90;;;;;;4997028;28;20213;-75
2022/03/14 06:25:57;;;;;;;49.67;15.27;;;-0.30;99.90;;;;;;4997040;28;20184;-76
2022/03/14 06:28:23;;;;;;;27.70;13.10;;;-0.20;99.90;;;;;;5014373;28;20519;-75
2022/03/14 06:30:49;;;;;;;41.93;13.53;;;-0.20;99.90;;;;;;5014625;28;20262;-75
2022/03/14 06:33:14;;;;;;;29.47;12.33;;;-0.20;99.90;;;;;;5015182;28;20294;-74
2022/03/14 06:35:41;;;;;;;42.40;13.93;;;-0.10;99.90;;;;;;5014435;28;20191;-74
2022/03/14 06:38:07;;;;;;;37.63;12.63;;;0.00;99.90;;;;;;5014367;28;20227;-76
2022/03/14 06:40:33;;;;;;;35.53;13.60;;;0.20;99.90;;;;;;4996784;28;20568;-73
2022/03/14 06:42:59;;;;;;;35.57;13.10;;;0.20;99.90;;;;;;5012154;28;20183;-75
2022/03/14 06:45:26;;;;;;;33.60;13.97;;;0.30;99.90;;;;;;5034518;28;20202;-74
2022/03/14 06:47:54;;;;;;;32.23;12.37;;;0.30;99.90;;;;;;5033616;28;20245;-73
2022/03/14 06:50:21;;;;;;;50.87;15.17;;;0.40;99.90;;;;;;5016383;28;20182;-76
2022/03/14 06:52:47;;;;;;;54.47;14.00;;;0.40;99.90;;;;;;5030423;28;20272;-74
2022/03/14 06:55:13;;;;;;;41.90;12.93;;;0.50;99.90;;;;;;5009162;28;20185;-75
2022/03/14 06:57:39;;;;;;;51.50;13.33;;;0.60;99.90;;;;;;5014620;28;20191;-75
2022/03/14 07:00:07;;;;;;;32.00;11.53;;;0.50;99.90;;;;;;4998479;28;20705;-76
2022/03/14 07:02:34;;;;;;;51.83;12.87;;;0.60;99.90;;;;;;5016551;28;20251;-76
2022/03/14 07:05:00;;;;;;;59.60;14.50;;;0.60;99.90;;;;;;5027617;28;20566;-75
2022/03/14 07:07:26;;;;;;;46.30;12.63;;;0.70;99.90;;;;;;5030727;28;20187;-75
2022/03/14 07:09:52;;;;;;;35.30;13.13;;;0.90;99.90;;;;;;5015535;28;20657;-69
2022/03/14 07:12:17;;;;;;;44.00;14.40;;;1.00;99.90;;;;;;5018828;28;20199;-76
2022/03/14 07:14:43;;;;;;;55.73;12.47;;;1.10;99.90;;;;;;5033376;28;20199;-75
2022/03/14 07:17:09;;;;;;;43.00;14.23;;;1.00;99.90;;;;;;4984459;28;20188;-75
2022/03/14 07:19:35;;;;;;;60.17;15.33;;;1.00;99.90;;;;;;5023722;28;20225;-75
2022/03/14 07:22:02;;;;;;;38.97;12.93;;;1.10;99.90;;;;;;5010296;28;20559;-76
2022/03/14 07:24:28;;;;;;;46.97;13.83;;;1.20;99.90;;;;;;5024139;28;20184;-74
2022/03/14 07:26:53;;;;;;;31.13;14.73;;;1.30;99.90;;;;;;5004335;28;20180;-76
2022/03/14 07:29:20;;;;;;;51.67;16.10;;;1.30;99.90;;;;;;5014638;28;20198;-76
2022/03/14 07:31:45;;;;;;;45.53;13.83;;;1.30;99.90;;;;;;4999523;28;20189;-77
2022/03/14 07:34:12;;;;;;;54.50;14.27;;;1.20;99.90;;;;;;5020853;28;20200;-77
2022/03/14 07:36:38;;;;;;;45.07;13.70;;;1.30;99.90;;;;;;5019238;28;20192;-74
2022/03/14 07:39:05;;;;;;;59.97;16.77;;;1.40;99.90;;;;;;5015398;28;20561;-74
2022/03/14 07:41:32;;;;;;;74.93;16.33;;;1.50;99.90;;;;;;5020394;28;20543;-73
2022/03/14 07:44:00;;;;;;;42.53;16.43;;;1.70;99.90;;;;;;5033137;28;20619;-76
2022/03/14 07:46:27;;;;;;;106.27;20.03;;;1.80;99.90;;;;;;5005653;28;20241;-74
2022/03/14 07:48:53;;;;;;;78.23;16.47;;;2.00;99.90;;;;;;5010477;28;20193;-74
2022/03/14 07:51:19;;;;;;;57.73;15.10;;;2.20;99.90;;;;;;4999814;28;20213;-75
2022/03/14 07:53:45;;;;;;;50.20;15.27;;;2.20;99.90;;;;;;5010834;28;20632;-75
2022/03/14 07:56:13;;;;;;;35.50;12.87;;;2.30;99.90;;;;;;5002685;28;20196;-75
2022/03/14 07:58:41;;;;;;;53.60;15.70;;;2.40;99.90;;;;;;5009682;28;20215;-74
2022/03/14 08:01:06;;;;;;;45.03;14.33;;;2.40;99.90;;;;;;5005551;28;20674;-75
2022/03/14 08:03:32;;;;;;;40.87;13.17;;;2.30;99.90;;;;;;5011181;28;20282;-74
2022/03/14 08:06:00;;;;;;;40.13;15.00;;;2.40;99.90;;;;;;5003783;28;20502;-74
2022/03/14 08:08:27;;;;;;;43.63;14.53;;;2.30;99.90;;;;;;5007366;28;20201;-74
2022/03/14 08:10:56;;;;;;;32.07;13.20;;;2.10;99.90;;;;;;5003702;28;20241;-73
2022/03/14 08:13:22;;;;;;;30.07;13.07;;;2.20;99.90;;;;;;5011890;28;20248;-73
2022/03/14 08:15:48;;;;;;;46.37;13.37;;;2.30;99.90;;;;;;5010590;28;20228;-71
2022/03/14 08:18:14;;;;;;;34.17;13.70;;;2.40;99.90;;;;;;4997341;28;20615;-71
2022/03/14 08:20:40;;;;;;;44.43;13.70;;;2.40;99.90;;;;;;4993078;28;20210;-72
2022/03/14 08:23:06;;;;;;;35.53;12.93;;;2.30;99.90;;;;;;4992628;28;20186;-73
2022/03/14 08:25:36;;;;;;;74.13;17.27;;;2.10;99.90;;;;;;4992047;28;20186;-71
2022/03/14 08:28:03;;;;;;;30.23;12.40;;;2.00;99.90;;;;;;4991606;28;20194;-72
2022/03/14 08:30:29;;;;;;;37.67;13.27;;;1.90;99.90;;;;;;4990934;28;20184;-72
2022/03/14 08:32:57;;;;;;;81.30;15.90;;;2.10;99.90;;;;;;4990425;28;20183;-70
2022/03/14 08:35:23;;;;;;;28.13;11.83;;;2.30;99.90;;;;;;4990904;28;20504;-71
2022/03/14 08:37:51;;;;;;;38.43;12.43;;;2.40;99.90;;;;;;4990355;28;20193;-71
2022/03/14 08:40:22;;;;;;;69.50;15.60;;;2.60;99.90;;;;;;4989228;28;20279;-71
2022/03/14 08:42:50;;;;;;;78.20;16.60;;;2.70;99.90;;;;;;5005215;28;20215;-73
2022/03/14 08:45:16;;;;;;;44.17;14.10;;;2.80;99.90;;;;;;5012479;28;20259;-72
2022/03/14 08:47:42;;;;;;;33.53;13.27;;;2.80;99.90;;;;;;5011599;28;20389;-74
2022/03/14 08:50:09;;;;;;;68.13;16.83;;;2.90;99.90;;;;;;5012290;28;20186;-71
2022/03/14 08:52:36;;;;;;;40.03;13.07;;;3.00;99.90;;;;;;5011891;28;20190;-74
2022/03/14 08:55:02;;;;;;;33.73;12.07;;;3.10;99.90;;;;;;5011722;28;20191;-71
2022/03/14 08:57:28;;;;;;;41.88;15.85;;;3.10;99.90;;;;;;5011833;28;20397;-72
2022/03/14 08:59:54;;;;;;;50.47;14.07;;;3.00;99.90;;;;;;5011284;28;20551;-73
2022/03/14 09:02:20;;;;;;;39.97;12.40;;;3.00;99.90;;;;;;5011846;28;20363;-73
2022/03/14 09:04:46;;;;;;;43.60;12.90;;;3.00;99.90;;;;;;5011388;28;20536;-72
2022/03/14 09:07:32;;;;;;;31.03;11.27;;;2.90;99.90;;;;;;5011657;28;20179;-72
2022/03/14 09:10:03;;;;;;;50.90;13.63;;;2.80;99.90;;;;;;5011506;28;20277;-72
2022/03/14 09:12:30;;;;;;;38.00;12.17;;;2.90;99.90;;;;;;5012065;28;20581;-72
2022/03/14 09:14:56;;;;;;;21.30;11.13;;;3.10;99.90;;;;;;5011462;28;20192;-72
2022/03/14 09:17:24;;;;;;;33.03;11.90;;;3.50;99.90;;;;;;5002990;28;20184;-73
2022/03/14 09:19:50;;;;;;;40.80;12.20;;;3.70;99.90;;;;;;4990090;28;20668;-72
2022/03/14 09:22:18;;;;;;;29.47;11.13;;;3.80;99.90;;;;;;4992032;28;20180;-72
2022/03/14 09:24:45;;;;;;;31.67;12.83;;;3.80;99.90;;;;;;4991631;28;20180;-72
2022/03/14 09:27:11;;;;;;;22.93;11.70;;;3.60;99.90;;;;;;4992011;28;20180;-71
2022/03/14 09:29:38;;;;;;;42.50;13.07;;;3.40;99.90;;;;;;4990042;28;20202;-72
2022/03/14 09:32:04;;;;;;;39.50;13.97;;;3.50;99.90;;;;;;4991952;28;20249;-72
2022/03/14 09:34:31;;;;;;;36.07;12.40;;;3.60;99.90;;;;;;4991356;28;20274;-72
2022/03/14 09:36:57;;;;;;;38.07;13.73;;;3.70;99.90;;;;;;4991582;28;20238;-70
2022/03/14 09:39:23;;;;;;;67.23;17.33;;;3.60;99.90;;;;;;4991448;28;20227;-71
2022/03/14 09:41:53;;;;;;;30.33;13.73;;;3.80;99.90;;;;;;4995197;28;20290;-72
2022/03/14 09:44:20;;;;;;;55.87;14.17;;;3.80;99.90;;;;;;5011125;28;20184;-73
2022/03/14 09:46:48;;;;;;;40.13;14.90;;;3.60;99.90;;;;;;5021106;28;20234;-73
2022/03/14 09:49:15;;;;;;;38.33;14.00;;;3.80;99.90;;;;;;5030433;28;20193;-71
2022/03/14 09:51:42;;;;;;;28.37;13.17;;;3.90;99.90;;;;;;5012011;28;20542;-71
2022/03/14 09:54:09;;;;;;;46.10;13.50;;;3.80;99.90;;;;;;5030343;28;20182;-73
2022/03/14 09:56:37;;;;;;;31.40;12.70;;;3.70;99.90;;;;;;5030875;28;20178;-72
2022/03/14 09:59:05;;;;;;;44.37;13.17;;;3.80;99.90;;;;;;5030346;28;20198;-70
2022/03/14 10:01:31;;;;;;;30.03;13.50;;;4.10;99.90;;;;;;5030771;28;20624;-73
2022/03/14 10:03:57;;;;;;;36.20;12.53;;;4.20;99.90;;;;;;5030901;28;20197;-71
2022/03/14 10:06:23;;;;;;;41.23;13.63;;;4.20;99.90;;;;;;5030687;28;20197;-73
2022/03/14 10:08:49;;;;;;;66.97;16.97;;;4.30;99.90;;;;;;5030593;28;20182;-71
2022/03/14 10:11:14;;;;;;;28.63;12.50;;;4.20;99.90;;;;;;5030130;28;20237;-73
2022/03/14 10:13:41;;;;;;;34.40;14.37;;;4.20;99.90;;;;;;5030472;28;20179;-72
2022/03/14 10:16:07;;;;;;;31.60;12.63;;;4.10;99.90;;;;;;5030643;28;20576;-72
2022/03/14 10:18:50;;;;;;;27.43;13.50;;;4.10;99.90;;;;;;5012518;28;20212;-72
2022/03/14 10:21:37;;;;;;;38.97;14.53;;;4.30;99.60;;;;;;5030548;28;20177;-72
2022/03/14 10:24:11;;;;;;;44.60;13.33;;;4.50;99.60;;;;;;5012667;28;20182;-71
2022/03/14 10:26:41;;;;;;;26.43;12.40;;;4.50;99.40;;;;;;4996183;28;20197;-72
2022/03/14 10:29:11;;;;;;;31.40;13.03;;;4.70;99.20;;;;;;5030167;28;20182;-72
2022/03/14 10:31:40;;;;;;;48.57;15.77;;;5.00;98.80;;;;;;5012602;28;20274;-72
2022/03/14 10:34:10;;;;;;;31.67;14.13;;;4.70;98.90;;;;;;5012655;28;20254;-71
2022/03/14 10:36:53;;;;;;;42.27;15.13;;;4.70;99.50;;;;;;5030539;28;20249;-71
2022/03/14 10:39:27;;;;;;;28.47;13.37;;;4.70;99.80;;;;;;5012566;28;20245;-72
2022/03/14 10:42:10;;;;;;;48.50;15.00;;;4.80;99.50;;;;;;5029579;28;20190;-73
2022/03/14 10:44:38;;;;;;;54.10;15.37;;;4.80;99.50;;;;;;5030029;28;20175;-73
2022/03/14 10:47:06;;;;;;;33.20;13.40;;;4.90;99.30;;;;;;5029869;28;20230;-71
2022/03/14 10:49:35;;;;;;;36.87;15.83;;;4.80;98.60;;;;;;5030190;28;20194;-72
2022/03/14 10:52:04;;;;;;;34.00;13.73;;;4.70;99.10;;;;;;5030225;28;20187;-71
2022/03/14 10:54:34;;;;;;;27.80;13.30;;;4.80;99.20;;;;;;5030470;28;20184;-71
2022/03/14 10:57:02;;;;;;;47.70;14.93;;;5.00;98.80;;;;;;5029354;28;20908;-71
2022/03/14 10:59:35;;;;;;;36.53;14.30;;;5.20;98.90;;;;;;5027897;28;20260;-71
2022/03/14 11:02:02;;;;;;;34.40;13.43;;;5.40;98.00;;;;;;5029557;28;20671;-75
2022/03/14 11:04:28;;;;;;;34.17;13.27;;;5.70;97.20;;;;;;5031346;28;20221;-72
2022/03/14 11:07:00;;;;;;;38.60;14.33;;;5.60;96.80;;;;;;5015177;28;20215;-73
2022/03/14 11:09:44;;;;;;;37.30;14.07;;;5.70;96.90;;;;;;5032795;28;20187;-74
2022/03/14 11:12:15;;;;;;;36.03;13.67;;;5.60;96.80;;;;;;5032820;28;20530;-73
2022/03/14 11:14:41;;;;;;;33.43;14.70;;;5.80;96.80;;;;;;5033210;28;20209;-72
2022/03/14 11:17:19;;;;;;;37.33;14.27;;;5.70;96.70;;;;;;5027041;28;20181;-73
2022/03/14 11:19:45;;;;;;;57.17;17.77;;;5.70;96.20;;;;;;5008468;28;20308;-73
2022/03/14 11:22:13;;;;;;;41.40;18.40;;;5.60;96.20;;;;;;5013502;28;20263;-75
2022/03/14 11:24:41;;;;;;;35.80;15.50;;;5.70;96.60;;;;;;4995787;28;20225;-74
2022/03/14 11:27:13;;;;;;;42.13;16.97;;;5.80;96.20;;;;;;4994990;28;20190;-74
2022/03/14 11:29:40;;;;;;;43.03;15.23;;;5.90;96.20;;;;;;5013469;28;20250;-75
2022/03/14 11:32:07;;;;;;;35.93;16.37;;;6.20;96.00;;;;;;4995239;28;20182;-73
2022/03/14 11:34:34;;;;;;;29.77;14.87;;;6.50;95.40;;;;;;4995721;28;20191;-75
2022/03/14 11:37:01;;;;;;;36.23;14.03;;;6.80;94.50;;;;;;5012757;28;20187;-74
2022/03/14 11:39:28;;;;;;;54.63;16.97;;;7.00;94.60;;;;;;5012989;28;20695;-72
2022/03/14 11:41:58;;;;;;;84.60;19.30;;;7.10;94.10;;;;;;5018811;28;20179;-74
2022/03/14 11:44:25;;;;;;;32.63;14.37;;;7.20;93.80;;;;;;5032478;28;20167;-74
2022/03/14 11:46:54;;;;;;;35.43;14.77;;;7.40;93.50;;;;;;5032208;28;20634;-74
2022/03/14 11:49:19;;;;;;;32.40;15.03;;;7.50;93.20;;;;;;5033084;28;20278;-73
2022/03/14 11:51:47;;;;;;;56.77;18.43;;;7.40;93.20;;;;;;5032547;28;20353;-75
2022/03/14 11:54:14;;;;;;;41.13;13.17;;;7.60;93.20;;;;;;5032133;28;20195;-74
2022/03/14 11:56:57;;;;;;;28.23;12.83;;;8.20;92.40;;;;;;5031958;28;20188;-73
2022/03/14 11:59:34;;;;;;;44.27;14.37;;;8.60;89.90;;;;;;5014418;28;20692;-74
2022/03/14 12:02:00;;;;;;;26.83;13.37;;;9.70;88.10;;;;;;5014160;28;20196;-74
2022/03/14 12:04:33;;;;;;;37.03;15.90;;;11.20;80.70;;;;;;4998832;28;20195;-76
2022/03/14 12:06:59;;;;;;;41.67;14.43;;;11.60;75.40;;;;;;5031938;28;20177;-75
2022/03/14 12:09:25;;;;;;;48.67;16.60;;;12.30;72.50;;;;;;5015013;28;20224;-75
2022/03/14 12:11:55;;;;;;;29.43;13.97;;;13.70;68.60;;;;;;5014011;28;20187;-75
2022/03/14 12:14:43;;;;;;;31.63;13.90;;;14.50;62.20;;;;;;5032229;28;20213;-76
2022/03/14 12:17:15;;;;;;;34.43;14.27;;;15.20;59.40;;;;;;5025663;28;20188;-75
2022/03/14 12:20:04;;;;;;;30.27;14.07;;;14.60;58.10;;;;;;5012834;28;20211;-73
2022/03/14 12:22:29;;;;;;;40.23;14.73;;;14.70;57.80;;;;;;5012544;28;20178;-75
2022/03/14 12:24:59;;;;;;;35.97;15.33;;;15.60;56.90;;;;;;5012425;28;20176;-75
2022/03/14 12:27:33;;;;;;;33.10;15.17;;;16.40;54.90;;;;;;4994977;28;20179;-75
2022/03/14 12:30:05;;;;;;;39.73;13.90;;;16.20;52.60;;;;;;5012344;28;20180;-75
2022/03/14 12:32:52;;;;;;;29.03;13.73;;;17.20;52.10;;;;;;5012662;28;20268;-75